Flugplatz Wesel-Römerwardt

Für EDLX sind keine METAR/TAF Berichte vorhanden.
Es werden die Flugwettermeldungen vom Flugplatz Niederrhein in 32 km Entfernung angezeigt.

Prognose für EDLV

vom 06.03. um 17:00 UTC

Am 06.03. zwischen 18:00 UTC und 02:00 UTC

variable Windrichtung mit 3 kt

Sichtweite 10 km oder mehr

keine signifikanten Wettererscheinungen

keine Wolken


Zwischen 02:00 und 05:00 UTC übergehend zu

variable Windrichtung mit 3 kt

Sichtweite 4000 m

feuchter Dunst

keine Wolken


Zwischen 05:00 UTC und 09:00 UTC zeitweise mit einer Wahrscheinlichkeit von 30%

Sichtweite 500 m

Code: FZFG

bedeckt


Zwischen 09:00 und 11:00 UTC übergehend zu

variable Windrichtung mit 3 kt

Sichtweite 10 km oder mehr

feuchter Dunst

keine Wolken

TAF EDLV 061700Z 0618/0718 VRB03KT CAVOK BECMG 0702/0705 4000 BR PROB30 TEMPO 0705/0709 0500 FZFG OVC000 BECMG 0709/0711 9999
Impressum